Flight Track Log - Related Links

Times and Time Zones

All times are in EDT time to prevent confusion due to time zone crossing. See the TAM3469 flight status page for this flight to view local times or setup timezone preferences in your user account.

Time Position Orientation Groundspeed Altitude Reporting Facility
EDT Latitude Longitude Course Direction KTS MPH feet Rate Location/Type
Tue 07:49:00 PM -18.8594 -48.4295 161° South  Level Estimated
Tue 07:50:00 PM -18.9418 -48.3998 161° South  Level Estimated
Tue 07:51:00 PM -19.0242 -48.3701 161° South  Level Estimated
Tue 07:52:00 PM -19.1066 -48.3403 161° South  Level Estimated
Tue 07:53:00 PM -19.1891 -48.3105 161° South  Level Estimated
Tue 07:54:00 PM -19.2715 -48.2807 161° South  Level Estimated
Tue 07:55:00 PM -19.3539 -48.2509 161° South  Level Estimated
Tue 07:56:00 PM -19.4363 -48.2210 161° South  Level Estimated
Tue 07:57:00 PM -19.5187 -48.1911 161° South  Level Estimated
Tue 07:58:00 PM -19.6011 -48.1612 161° South  Level Estimated
Tue 07:59:00 PM -19.6835 -48.1312 161° South  Level Estimated
Tue 08:00:00 PM -19.7658 -48.1012 161° South  Level Estimated
Tue 08:01:00 PM -19.8482 -48.0712 161° South  Level Estimated
Tue 08:02:00 PM -19.9306 -48.0411 161° South  Level Estimated
Tue 08:03:00 PM -20.0130 -48.0111 161° South  Level Estimated
Tue 08:04:00 PM -20.0953 -47.9809 161° South  Level Estimated
Tue 08:05:00 PM -20.1777 -47.9508 161° South  Level Estimated
Tue 08:06:00 PM -20.2600 -47.9206 161° South  Level Estimated
Tue 08:07:00 PM -20.3424 -47.8904 161° South  Level Estimated
Tue 08:08:00 PM -20.4247 -47.8601 161° South  Level Estimated
Tue 08:09:00 PM -20.5071 -47.8299 161° South  Level Estimated
Tue 08:10:00 PM -20.5894 -47.7996 161° South  Level Estimated
Tue 08:11:00 PM -20.6717 -47.7692 161° South  Level Estimated
Tue 08:12:00 PM -20.7540 -47.7388 161° South  Level Estimated
Tue 08:13:00 PM -20.8363 -47.7084 161° South  Level Estimated
Tue 08:14:00 PM -20.9187 -47.6780 161° South  Level Estimated
Tue 08:15:00 PM -21.0010 -47.6475 161° South  Level Estimated
Tue 08:16:00 PM -21.0833 -47.6170 161° South  Level Estimated
Tue 08:17:00 PM -21.1656 -47.5864 161° South  Level Estimated
Tue 08:18:00 PM -21.2478 -47.5559 161° South  Level Estimated
Tue 08:19:00 PM -21.3301 -47.5253 161° South  Level Estimated
Tue 08:20:00 PM -21.4124 -47.4946 161° South  Level Estimated
Tue 08:21:00 PM -21.4947 -47.4639 161° South  Level Estimated
Tue 08:22:00 PM -21.5769 -47.4332 161° South  Level Estimated
Tue 08:23:00 PM -21.6592 -47.4025 161° South  Level Estimated
Tue 08:24:00 PM -21.7414 -47.3717 161° South  Level Estimated
Tue 08:25:00 PM -21.8237 -47.3409 161° South  Level Estimated
Tue 08:26:00 PM -21.9059 -47.3100 161° South  Level Estimated
Tue 08:27:00 PM -21.9882 -47.2791 161° South  Level Estimated
Tue 08:28:00 PM -22.0704 -47.2482 161° South  Level Estimated
Tue 08:29:00 PM -22.1526 -47.2172 161° South  Level Estimated
Tue 08:30:00 PM -22.2349 -47.1862 161° South  Level Estimated
Tue 08:31:00 PM -22.3171 -47.1552 161° South  Level Estimated
Tue 08:32:00 PM -22.3993 -47.1241 161° South  Level Estimated
Tue 08:33:00 PM -22.4815 -47.0930 161° South  Level Estimated
Tue 08:34:00 PM -22.5637 -47.0618 161° South  Level Estimated
Tue 08:35:00 PM -22.6459 -47.0306 161° South  Level Estimated
Tue 08:36:00 PM -22.7281 -46.9994 161° South  Level Estimated
Tue 08:37:00 PM -22.8102 -46.9682 161° South  Level Estimated
Tue 08:38:00 PM -22.8924 -46.9369 161° South  Level Estimated
Tue 08:39:00 PM -22.9746 -46.9055 161° South  Level Estimated
Tue 08:40:00 PM -23.0567 -46.8742 161° South  Level Estimated
Tue 08:41:00 PM -23.1389 -46.8428 161° South  Level Estimated
Tue 08:42:00 PM -23.2210 -46.8113 161° South  Level Estimated
Tue 08:43:00 PM -23.3032 -46.7798 161° South  Level Estimated
Tue 08:44:00 PM -23.3853 -46.7483 161° South  Level Estimated
Tue 08:45:00 PM -23.4674 -46.7167 161° South  Level Estimated
Tue 08:46:00 PM -23.5495 -46.6851 161° South  Level Estimated
Tue 08:47:00 PM -23.6267 -46.6554 161° South  Level Estimated
Tue 08:48:00 PM -23.6267 -46.6554 114° Southeast  Level Estimated
Tue 08:49:00 PM -23.6267 -46.6554 114° Southeast  Level Estimated
Tue 08:50:00 PM -23.6267 -46.6554 114° Southeast  Level Estimated
Tue 08:51:00 PM -23.6267 -46.6554 114° Southeast  Level Estimated
Tue 08:52:00 PM -23.6267 -46.6554 114° Southeast  Level Estimated
Tue 08:53:00 PM -23.6267 -46.6554 114° Southeast  Level Estimated
Tue 08:54:00 PM -23.6267 -46.6554 114° Southeast  Level Estimated
Tue 08:55:00 PM -23.6267 -46.6554 114° Southeast  Level Estimated
Tue 08:56:00 PM -23.6267 -46.6554 114° Southeast  Level Estimated
Tue 08:57:00 PM -23.6267 -46.6554 114° Southeast  Level Estimated
Tue 08:58:00 PM -23.6267 -46.6554 114° Southeast  Level Estimated
Tue 08:59:00 PM -23.6267 -46.6554 114° Southeast  Level Estimated
Tue 09:00:00 PM -23.6267 -46.6554 114° Southeast  Level Estimated
Tue 09:01:00 PM -23.6267 -46.6554 114° Southeast  Level Estimated
Tue 09:02:00 PM -23.6267 -46.6554 114° Southeast  Level Estimated
Tue 09:03:00 PM -23.6267 -46.6554 114° Southeast  Level Estimated

Login

Don't have an account? Register now (free) for customized features, flight alerts, and more!